Impacts METAR Board
IDs:

KSLC - Salt Lake City Intl, UT, US

Updated at: 0300 UTC 23 May 2018
Potential Impact None Slight Moderate High
Time 22/15Z 22/16Z 22/17Z 22/18Z 22/19Z 22/20Z 22/21Z 22/22Z 22/23Z 23/00Z 23/01Z 23/02Z 23/03Z
Temp62 64 66 69 71 71 69 65 65 69 69 66 59
Dewpt47 48 48 46 48 46 46 48 48 44 41 40 50
Altim29.90 29.90 29.90 29.91 29.91 29.89 29.91 29.92 29.91 29.90 29.89 29.93 29.94
VIS10 10 10 10 10 10 10 10 10 10 10 10 10
CIG250 230 220 230 220 200 100 50 120 180 180 110 110
CoverBKNBKNBKNBKNBKNBKNBKNBKNBKNBKNBKNBKNBKN
FltCatVFRVFRVFRVFRVFRVFRVFRVFRVFRVFRVFRVFRVFR
WX---------------TSRA-------TSRA--
WDir0160240029034050300340101018060
WSpd0 3 4 0 9 9 9 14 21 14 5 20 12
WGst-- -- -- -- -- -- -- 17 -- -- -- 30 --
Raw hourly METARs
KSLC 221454Z 00000KT 10SM FEW080 FEW140 SCT190 BKN250 17/08 A2990 RMK AO2 SLP086 VIRGA DSNT NE AND SW T01670083 51008
KSLC 221554Z 16003KT 10SM FEW085 SCT140 BKN230 18/09 A2990 RMK AO2 SLP087 CB DSNT SW T01780089
KSLC 221654Z 24004KT 10SM FEW075 FEW140 BKN220 19/09 A2990 RMK AO2 SLP085 VIRGA DSNT NE AND E TCU DSNT SW T01890089
KSLC 221754Z 00000KT 10SM FEW075 SCT160 BKN230 21/08 A2991 RMK AO2 SLP087 VIRGA DSNT SE CB DSNT NE AND SW T02060078 10217 20133 53002
KSLC 221854Z 29009KT 10SM FEW075TCU SCT150 BKN220 22/09 A2991 RMK AO2 SLP083 VIRGA DSNT SE AND NW CB DSNT NE AND SE AND SW-W TCU SW T02170089
KSLC 221954Z 34009KT 10SM FEW050 FEW070 SCT110 BKN200 22/08 A2989 RMK AO2 LTG DSNT E SLP078 VIRGA DSNT SW AND NW CB DSNT ALQDS T02170078
KSLC 222054Z 05009KT 10SM SCT065CB BKN100 BKN220 21/08 A2991 RMK AO2 LTG DSNT ALQDS SLP088 VIRGA DSNT E-SE AND W-NW CB NE-SE MOV NW AND DSNT ALQDS TCU NW T02060078 53001
KSLC 222154Z COR 30014G17KT 10SM -TSRA FEW030 BKN050CB BKN090 BKN200 18/09 A2992 RMK AO2 RAB03 TSB18 SLP095 OCNL LTGCCCA W-NW TS W-NW MOV N P0000 T01830089
KSLC 222254Z 34021KT 10SM SCT090 BKN120 18/09 A2991 RMK AO2 SLP091 VIRGA RAE12 TSE12 CB DSNT ALQDS VCSH P0000 T01830089
KSLC 222354Z 01014KT 10SM FEW080 SCT120 BKN180 BKN240 21/07 A2990 RMK AO2 LTG DSNT SW SLP085 VIRGA CB DSNT ALQDS 60000 T02060067 10222 20167 58005
KSLC 230054Z 01005KT 10SM FEW050 FEW080 SCT120 BKN180 BKN240 21/05 A2989 RMK AO2 LTG DSNT S SLP082 CB DSNT E AND S AND SW T02060050
KSLC 230202Z COR 18020G30KT 10SM -TSRA FEW050CB SCT090 BKN110 BKN240 19/04 A2993 RMK AO2 PK WND 18030/0202 RAB01 TSB01 OCNL LTGCCCG E-SE TS E-SE MOV N P0000 T01890044
KSLC 230254Z 06012KT 10SM FEW028 FEW070 BKN110 BKN200 15/10 A2994 RMK AO2 PK WND 18030/0202 WSHFT 0151 LTG DSNT NE AND E RAB01E45 TSB01E44 SLP105 VIRGA CB DSNT NE AND E VCSH P0005 60005 T01500100 53014



Page loaded:  03:05 UTC  |   08:05 PM Pacific  |   09:05 PM Mountain  |   10:05 PM Central  |   11:05 PM Eastern

 

ADVISORIES

FORECASTS

FORECASTS

OBSERVATIONS

USER TOOLS

ABOUT US